createdAt,value
2018-03-31T00:00:40.276Z,3.30
2018-03-31T00:03:07.426Z,3.30
2018-03-31T00:05:34.583Z,3.30
2018-03-31T00:08:01.752Z,3.30
2018-03-31T00:10:28.874Z,3.20
2018-03-31T00:12:56.768Z,3.20
2018-03-31T00:15:24.876Z,3.20
2018-03-31T00:17:52.000Z,3.20
2018-03-31T00:20:19.891Z,3.20
2018-03-31T00:22:47.860Z,3.10
2018-03-31T00:25:15.781Z,3.10
2018-03-31T00:27:42.930Z,3.10
2018-03-31T00:30:10.193Z,2.80
2018-03-31T00:32:37.361Z,3.00
2018-03-31T00:35:04.511Z,3.00
2018-03-31T00:37:31.682Z,3.00
2018-03-31T00:39:58.823Z,3.00
2018-03-31T00:42:26.715Z,2.90
2018-03-31T00:44:53.892Z,2.90
2018-03-31T00:47:21.019Z,2.90
2018-03-31T00:49:48.911Z,2.80
2018-03-31T00:52:16.283Z,2.80
2018-03-31T00:54:43.461Z,2.80
2018-03-31T00:57:10.606Z,2.80
2018-03-31T00:59:37.870Z,2.80
2018-03-31T01:02:05.868Z,2.70
2018-03-31T01:04:33.154Z,2.70
2018-03-31T01:07:00.355Z,2.70
2018-03-31T01:09:28.267Z,2.70
2018-03-31T01:11:55.415Z,2.70
2018-03-31T01:14:22.595Z,2.70
2018-03-31T01:16:49.742Z,2.70
2018-03-31T01:19:16.866Z,2.70
2018-03-31T01:21:44.040Z,2.70
2018-03-31T01:24:11.947Z,2.70
2018-03-31T01:26:39.104Z,2.60
2018-03-31T01:29:06.374Z,2.70
2018-03-31T01:31:33.532Z,2.70
2018-03-31T01:34:00.660Z,2.60
2018-03-31T01:36:27.874Z,2.60
2018-03-31T01:38:55.020Z,2.60
2018-03-31T01:41:22.197Z,2.60
2018-03-31T01:43:49.368Z,2.60
2018-03-31T01:46:16.515Z,2.60
2018-03-31T01:48:43.648Z,2.60
2018-03-31T01:51:10.847Z,2.60
2018-03-31T01:53:37.986Z,2.60
2018-03-31T01:56:05.111Z,2.60
2018-03-31T01:58:32.274Z,2.60
2018-03-31T02:00:59.390Z,2.60
2018-03-31T02:03:26.527Z,2.60
2018-03-31T02:05:53.694Z,2.50
2018-03-31T02:08:20.978Z,2.50
2018-03-31T02:10:48.126Z,2.50
2018-03-31T02:13:15.391Z,2.40
2018-03-31T02:15:42.514Z,2.50
2018-03-31T02:18:09.647Z,2.40
2018-03-31T02:20:36.867Z,2.40
2018-03-31T02:23:04.066Z,2.40
2018-03-31T02:25:31.188Z,2.40
2018-03-31T02:27:58.576Z,2.40
2018-03-31T02:30:25.699Z,2.40
2018-03-31T02:32:53.599Z,2.40
2018-03-31T02:35:20.952Z,2.30
2018-03-31T02:37:48.847Z,2.40
2018-03-31T02:40:15.966Z,2.40
2018-03-31T02:42:43.143Z,2.40
2018-03-31T02:45:11.040Z,2.40
2018-03-31T02:47:38.172Z,2.40
2018-03-31T02:50:05.349Z,2.40
2018-03-31T02:52:33.243Z,2.30
2018-03-31T02:55:00.368Z,2.30
2018-03-31T02:57:28.348Z,2.30
2018-03-31T02:59:55.482Z,2.30
2018-03-31T03:02:22.603Z,2.30
2018-03-31T03:04:49.765Z,2.30
2018-03-31T03:07:16.891Z,2.30
2018-03-31T03:09:44.037Z,2.30
2018-03-31T03:12:11.215Z,2.30
2018-03-31T03:14:39.137Z,2.30
2018-03-31T03:17:06.279Z,2.30
2018-03-31T03:19:34.279Z,2.20
2018-03-31T03:22:01.402Z,2.20
2018-03-31T03:24:28.610Z,2.20
2018-03-31T03:26:55.783Z,2.30
2018-03-31T03:29:22.931Z,2.20
2018-03-31T03:31:50.048Z,2.20
2018-03-31T03:34:17.380Z,2.20
2018-03-31T03:36:44.549Z,2.20
2018-03-31T03:39:11.672Z,2.20
2018-03-31T03:41:38.959Z,2.20
2018-03-31T03:44:06.087Z,2.20
2018-03-31T03:46:33.971Z,2.20
2018-03-31T03:49:01.976Z,2.20
2018-03-31T03:51:29.243Z,2.20
2018-03-31T03:53:56.405Z,2.20
2018-03-31T03:56:23.668Z,2.20
2018-03-31T03:58:50.821Z,2.20
2018-03-31T04:01:17.947Z,2.20
2018-03-31T04:03:45.948Z,2.20
2018-03-31T04:06:13.081Z,2.20
2018-03-31T04:08:40.204Z,2.20
2018-03-31T04:11:07.378Z,2.20
2018-03-31T04:13:34.503Z,2.20
2018-03-31T04:16:01.656Z,2.20
2018-03-31T04:18:28.914Z,2.20
2018-03-31T04:20:56.811Z,2.20
2018-03-31T04:23:23.936Z,2.20
2018-03-31T04:25:51.976Z,2.20
2018-03-31T04:28:19.107Z,2.20
2018-03-31T04:30:46.230Z,2.20
2018-03-31T04:33:13.495Z,2.30
2018-03-31T04:35:40.623Z,2.30
2018-03-31T04:38:07.747Z,2.30
2018-03-31T04:40:35.037Z,2.30
2018-03-31T04:43:02.163Z,2.20
2018-03-31T04:45:30.063Z,2.20
2018-03-31T04:47:57.255Z,2.20
2018-03-31T04:50:24.416Z,2.20
2018-03-31T04:52:51.543Z,2.20
2018-03-31T04:55:18.739Z,2.20
2018-03-31T04:57:45.867Z,2.20
2018-03-31T05:00:12.995Z,2.20
2018-03-31T05:02:40.312Z,2.20
2018-03-31T05:05:07.497Z,2.20
2018-03-31T05:07:34.638Z,2.20
2018-03-31T05:10:01.900Z,2.20
2018-03-31T05:12:29.028Z,2.10
2018-03-31T05:14:56.936Z,2.10
2018-03-31T05:17:24.182Z,2.10
2018-03-31T05:19:51.307Z,2.20
2018-03-31T05:22:18.527Z,2.20
2018-03-31T05:24:45.779Z,2.20
2018-03-31T05:27:12.902Z,2.20
2018-03-31T05:29:40.031Z,2.20
2018-03-31T05:32:07.276Z,2.20
2018-03-31T05:34:34.404Z,2.20
2018-03-31T05:37:02.294Z,2.20
2018-03-31T05:39:29.481Z,2.20
2018-03-31T05:41:56.603Z,2.10
2018-03-31T05:44:24.491Z,2.20
2018-03-31T05:46:51.664Z,2.10
2018-03-31T05:49:18.787Z,2.10
2018-03-31T05:51:45.906Z,2.10
2018-03-31T05:54:13.111Z,2.20
2018-03-31T05:56:40.306Z,2.10
2018-03-31T05:59:07.434Z,2.20
2018-03-31T06:01:34.697Z,2.10
2018-03-31T06:04:01.838Z,2.20
2018-03-31T06:06:28.959Z,2.20
2018-03-31T06:08:56.393Z,2.20
2018-03-31T06:11:23.515Z,2.20
2018-03-31T06:13:50.638Z,2.20
2018-03-31T06:16:17.802Z,2.20
2018-03-31T06:18:44.923Z,2.30
2018-03-31T06:21:12.055Z,2.30
2018-03-31T06:23:39.223Z,2.40
2018-03-31T06:26:06.353Z,2.40
2018-03-31T06:28:33.488Z,2.40
2018-03-31T06:31:01.515Z,2.40
2018-03-31T06:33:28.643Z,2.40
2018-03-31T06:35:56.563Z,2.50
2018-03-31T06:38:23.734Z,2.50
2018-03-31T06:40:50.934Z,2.40
2018-03-31T06:43:18.064Z,2.50
2018-03-31T06:45:45.361Z,2.40
2018-03-31T06:48:13.254Z,2.40
2018-03-31T06:50:40.379Z,2.40
2018-03-31T06:53:07.695Z,2.40
2018-03-31T06:55:34.835Z,2.50
2018-03-31T06:58:02.723Z,2.50
2018-03-31T07:00:30.731Z,2.50
2018-03-31T07:02:57.866Z,2.50
2018-03-31T07:05:25.002Z,2.50
2018-03-31T07:07:52.219Z,2.40
2018-03-31T07:10:19.396Z,2.40
2018-03-31T07:12:46.521Z,2.40
2018-03-31T07:15:13.687Z,2.50
2018-03-31T07:17:40.807Z,2.40
2018-03-31T07:20:07.931Z,2.40
2018-03-31T07:22:35.211Z,2.40
2018-03-31T07:25:02.335Z,2.40
2018-03-31T07:27:29.621Z,2.40
2018-03-31T07:29:56.795Z,2.40
2018-03-31T07:32:23.937Z,2.40
2018-03-31T07:34:51.180Z,2.40
2018-03-31T07:37:18.355Z,2.50
2018-03-31T07:39:45.526Z,2.50
2018-03-31T07:42:12.997Z,2.50
2018-03-31T07:44:40.183Z,2.50
2018-03-31T07:47:07.326Z,2.50
2018-03-31T07:49:34.480Z,2.60
2018-03-31T07:52:01.905Z,2.60
2018-03-31T07:54:29.124Z,2.60
2018-03-31T07:56:56.250Z,2.60
2018-03-31T07:59:23.454Z,2.50
2018-03-31T08:01:50.585Z,2.60
2018-03-31T08:04:17.715Z,2.70
2018-03-31T08:06:45.843Z,2.70
2018-03-31T08:09:12.971Z,2.70
2018-03-31T08:11:40.884Z,2.70
2018-03-31T08:14:08.143Z,2.70
2018-03-31T08:16:35.287Z,2.70
2018-03-31T08:19:02.411Z,2.70
2018-03-31T08:21:29.581Z,2.70
2018-03-31T08:23:56.715Z,2.70
2018-03-31T08:26:23.838Z,2.70
2018-03-31T08:28:51.001Z,2.80
2018-03-31T08:31:18.191Z,2.80
2018-03-31T08:33:45.423Z,2.90
2018-03-31T08:36:12.591Z,2.90
2018-03-31T08:38:39.739Z,2.90
2018-03-31T08:41:06.868Z,3.00
2018-03-31T08:43:34.045Z,2.90
2018-03-31T08:46:01.940Z,3.00
2018-03-31T08:48:29.116Z,2.90
2018-03-31T08:50:56.479Z,3.00
2018-03-31T08:53:23.615Z,3.00
2018-03-31T08:55:51.520Z,3.10
2018-03-31T08:58:18.783Z,3.00
2018-03-31T09:00:46.081Z,3.10
2018-03-31T09:03:13.291Z,3.10
2018-03-31T09:05:41.231Z,3.10
2018-03-31T09:08:08.477Z,3.00
2018-03-31T09:10:35.607Z,3.10
2018-03-31T09:13:02.782Z,3.10
2018-03-31T09:15:29.937Z,3.20
2018-03-31T09:17:57.063Z,3.20
2018-03-31T09:20:24.303Z,3.20
2018-03-31T09:22:51.434Z,3.20
2018-03-31T09:25:18.587Z,3.10
2018-03-31T09:27:45.890Z,3.00
2018-03-31T09:30:13.019Z,3.00
2018-03-31T09:32:40.143Z,2.90
2018-03-31T09:35:07.342Z,2.90
2018-03-31T09:37:34.479Z,2.90
2018-03-31T09:40:02.371Z,2.90
2018-03-31T09:42:29.767Z,2.90
2018-03-31T09:44:56.908Z,2.90
2018-03-31T09:47:24.031Z,2.90
2018-03-31T09:49:51.263Z,2.90
2018-03-31T09:52:18.389Z,2.80
2018-03-31T09:54:45.574Z,2.80
2018-03-31T09:57:12.964Z,2.60
2018-03-31T09:59:40.102Z,2.60
2018-03-31T10:02:07.235Z,2.60
2018-03-31T10:04:34.406Z,2.60
2018-03-31T10:07:01.562Z,2.60
2018-03-31T10:09:28.687Z,2.60
2018-03-31T10:11:56.779Z,2.50
2018-03-31T10:14:23.994Z,2.50
2018-03-31T10:16:51.123Z,2.50
2018-03-31T10:19:19.069Z,2.50
2018-03-31T10:21:46.275Z,2.50
2018-03-31T10:24:13.447Z,2.60
2018-03-31T10:26:40.702Z,2.60
2018-03-31T10:29:07.833Z,2.60
2018-03-31T10:31:34.955Z,2.60
2018-03-31T10:34:02.139Z,2.60
2018-03-31T10:36:29.330Z,2.80
2018-03-31T10:38:56.447Z,3.00
2018-03-31T10:41:23.616Z,3.10
2018-03-31T10:43:50.844Z,3.20
2018-03-31T10:46:17.972Z,3.20
2018-03-31T10:48:46.096Z,3.10
2018-03-31T10:51:13.307Z,3.10
2018-03-31T10:53:40.508Z,3.10
2018-03-31T10:56:07.687Z,3.00
2018-03-31T10:58:34.835Z,3.00
2018-03-31T11:01:01.966Z,3.10
2018-03-31T11:03:30.029Z,3.20
2018-03-31T11:05:57.261Z,3.20
2018-03-31T11:08:24.411Z,3.20
2018-03-31T11:10:51.679Z,3.30
2018-03-31T11:13:18.835Z,3.30
2018-03-31T11:15:45.969Z,3.30
2018-03-31T11:18:13.907Z,3.30
2018-03-31T11:20:41.050Z,3.30
2018-03-31T11:23:08.259Z,3.40
2018-03-31T11:25:35.455Z,3.40
2018-03-31T11:28:02.600Z,3.50
2018-03-31T11:30:30.586Z,3.50
2018-03-31T11:32:58.541Z,3.60
2018-03-31T11:35:25.766Z,3.60
2018-03-31T11:37:52.931Z,3.60
2018-03-31T11:40:20.196Z,3.50
2018-03-31T11:42:47.323Z,3.50
2018-03-31T11:45:14.447Z,3.40
2018-03-31T11:47:41.635Z,3.40
2018-03-31T11:50:09.651Z,3.40
2018-03-31T11:52:36.806Z,3.40
2018-03-31T11:55:03.975Z,3.50
2018-03-31T11:57:31.107Z,3.50
2018-03-31T11:59:58.259Z,3.40
2018-03-31T12:02:26.199Z,3.50
2018-03-31T12:04:53.351Z,3.50
2018-03-31T12:07:20.512Z,3.50
2018-03-31T12:09:47.866Z,3.60
2018-03-31T12:12:14.995Z,3.60
2018-03-31T12:14:42.885Z,3.70
2018-03-31T12:17:10.256Z,3.70
2018-03-31T12:19:37.538Z,3.80
2018-03-31T12:22:04.694Z,3.80
2018-03-31T12:24:31.964Z,3.90
2018-03-31T12:26:59.163Z,3.90
2018-03-31T12:29:26.307Z,4.00
2018-03-31T12:31:53.556Z,4.00
2018-03-31T12:34:20.823Z,4.00
2018-03-31T12:36:47.962Z,4.10
2018-03-31T12:39:15.132Z,4.10
2018-03-31T12:41:42.295Z,4.10
2018-03-31T12:44:09.463Z,4.10
2018-03-31T12:46:36.630Z,4.10
2018-03-31T12:49:03.786Z,4.10
2018-03-31T12:51:30.958Z,4.10
2018-03-31T12:53:58.133Z,4.00
2018-03-31T12:56:25.259Z,4.00
2018-03-31T12:58:52.381Z,4.10
2018-03-31T13:01:19.547Z,4.20
2018-03-31T13:03:46.675Z,4.30
2018-03-31T13:06:13.799Z,4.40
2018-03-31T13:08:41.224Z,4.50
2018-03-31T13:11:08.359Z,4.50
2018-03-31T13:13:35.515Z,4.50
2018-03-31T13:16:02.780Z,4.40
2018-03-31T13:18:29.927Z,4.40
2018-03-31T13:20:57.049Z,4.40
2018-03-31T13:23:24.980Z,4.40
2018-03-31T13:25:52.129Z,4.40
2018-03-31T13:28:19.255Z,4.40
2018-03-31T13:30:46.419Z,4.40
2018-03-31T13:33:14.311Z,4.30
2018-03-31T13:35:42.199Z,4.30
2018-03-31T13:38:09.383Z,4.20
2018-03-31T13:40:36.539Z,4.10
2018-03-31T13:43:03.799Z,4.10
2018-03-31T13:45:30.965Z,4.00
2018-03-31T13:47:58.095Z,3.90
2018-03-31T13:50:25.986Z,3.90
2018-03-31T13:52:54.111Z,3.90
2018-03-31T13:55:21.307Z,3.80
2018-03-31T13:57:48.506Z,3.70
2018-03-31T14:00:15.682Z,3.60
2018-03-31T14:02:42.808Z,3.60
2018-03-31T14:05:10.704Z,3.60
2018-03-31T14:07:37.899Z,3.60
2018-03-31T14:10:05.089Z,3.60
2018-03-31T14:12:32.212Z,3.50
2018-03-31T14:14:59.381Z,3.50
2018-03-31T14:17:26.505Z,3.50
2018-03-31T14:19:53.647Z,3.40
2018-03-31T14:22:20.827Z,3.40
2018-03-31T14:24:48.720Z,3.50
2018-03-31T14:27:15.898Z,3.40
2018-03-31T14:29:43.062Z,3.40
2018-03-31T14:32:10.350Z,3.40
2018-03-31T14:34:37.567Z,3.20
2018-03-31T14:37:04.860Z,3.10
2018-03-31T14:39:31.993Z,2.90
2018-03-31T14:41:59.131Z,2.90
2018-03-31T14:44:27.074Z,2.80
2018-03-31T14:46:54.211Z,2.80
2018-03-31T14:49:21.369Z,2.70
2018-03-31T14:51:48.533Z,2.70
2018-03-31T14:54:15.690Z,2.60
2018-03-31T14:56:42.814Z,2.50
2018-03-31T14:59:10.002Z,2.40
2018-03-31T15:01:37.900Z,2.50
2018-03-31T15:04:05.023Z,2.50
2018-03-31T15:06:32.963Z,2.40
2018-03-31T15:09:00.128Z,2.40
2018-03-31T15:11:27.272Z,2.30
2018-03-31T15:13:54.431Z,2.30
2018-03-31T15:16:21.622Z,2.30
2018-03-31T15:18:48.718Z,2.30
2018-03-31T15:21:16.658Z,2.10
2018-03-31T15:23:43.795Z,2.10
2018-03-31T15:26:10.923Z,2.10
2018-03-31T15:28:38.906Z,2.00
2018-03-31T15:31:06.799Z,1.90
2018-03-31T15:33:33.928Z,1.90
2018-03-31T15:36:01.868Z,1.80
2018-03-31T15:38:29.001Z,1.80
2018-03-31T15:40:56.140Z,1.80
2018-03-31T15:43:24.105Z,1.80
2018-03-31T15:45:51.231Z,1.80
2018-03-31T15:48:18.359Z,1.90
2018-03-31T15:50:45.563Z,1.80
2018-03-31T15:53:12.691Z,1.80
2018-03-31T15:55:40.608Z,1.80
2018-03-31T15:58:07.827Z,1.80
2018-03-31T16:00:34.955Z,1.90
2018-03-31T16:03:02.096Z,1.80
2018-03-31T16:05:29.293Z,1.90
2018-03-31T16:07:57.209Z,1.80
2018-03-31T16:10:24.358Z,1.80
2018-03-31T16:12:51.580Z,1.80
2018-03-31T16:15:19.619Z,1.80
2018-03-31T16:17:46.771Z,1.90
2018-03-31T16:20:14.052Z,2.00
2018-03-31T16:22:41.182Z,2.20
2018-03-31T16:25:09.135Z,2.50
2018-03-31T16:27:36.335Z,2.40
2018-03-31T16:30:03.463Z,2.50
2018-03-31T16:32:30.661Z,2.40
2018-03-31T16:34:57.851Z,2.50
2018-03-31T16:37:24.980Z,2.40
2018-03-31T16:39:52.116Z,2.20
2018-03-31T16:42:20.059Z,2.00
2018-03-31T16:44:47.220Z,2.00
2018-03-31T16:47:14.390Z,2.10
2018-03-31T16:49:41.611Z,2.00
2018-03-31T16:52:09.019Z,1.90
2018-03-31T16:54:36.141Z,1.90
2018-03-31T16:57:03.318Z,1.80
2018-03-31T16:59:30.464Z,1.80
2018-03-31T17:01:57.627Z,1.80
2018-03-31T17:04:24.826Z,1.90
2018-03-31T17:06:51.951Z,1.90
2018-03-31T17:09:19.547Z,1.90
2018-03-31T17:11:46.726Z,1.80
2018-03-31T17:14:13.943Z,1.80
2018-03-31T17:16:41.079Z,1.80
2018-03-31T17:19:09.131Z,1.70
2018-03-31T17:21:36.384Z,1.70
2018-03-31T17:24:03.510Z,1.70
2018-03-31T17:26:30.699Z,1.70
2018-03-31T17:28:57.833Z,1.60
2018-03-31T17:31:25.150Z,1.60
2018-03-31T17:33:53.266Z,1.60
2018-03-31T17:36:20.406Z,1.60
2018-03-31T17:38:47.554Z,1.60
2018-03-31T17:41:14.722Z,1.60
2018-03-31T17:43:41.874Z,1.60
2018-03-31T17:46:09.040Z,1.70
2018-03-31T17:48:36.226Z,1.70
2018-03-31T17:51:04.152Z,1.80
2018-03-31T17:53:31.285Z,1.80
2018-03-31T17:55:59.231Z,1.70
2018-03-31T17:58:27.875Z,1.60
2018-03-31T18:00:55.001Z,1.60
2018-03-31T18:03:22.339Z,1.60
2018-03-31T18:05:49.472Z,1.60
2018-03-31T18:08:16.626Z,1.60
2018-03-31T18:10:44.581Z,1.60
2018-03-31T18:13:12.477Z,1.60
2018-03-31T18:15:40.028Z,1.60
2018-03-31T18:18:07.335Z,1.60
2018-03-31T18:20:34.480Z,1.60
2018-03-31T18:23:01.660Z,1.60
2018-03-31T18:25:28.850Z,1.60
2018-03-31T18:27:56.013Z,1.60
2018-03-31T18:30:23.320Z,1.60
2018-03-31T18:32:51.255Z,1.80
2018-03-31T18:35:18.416Z,1.80
2018-03-31T18:37:45.538Z,2.00
2018-03-31T18:40:12.716Z,2.10
2018-03-31T18:42:39.839Z,2.00
2018-03-31T18:45:07.728Z,1.80
2018-03-31T18:47:34.942Z,1.80
2018-03-31T18:50:03.044Z,1.80
2018-03-31T18:52:30.972Z,1.70
2018-03-31T18:54:58.221Z,1.70
2018-03-31T18:57:25.337Z,1.70
2018-03-31T18:59:52.470Z,1.60
2018-03-31T19:02:19.755Z,1.60
2018-03-31T19:04:47.693Z,1.60
2018-03-31T19:07:14.867Z,1.60
2018-03-31T19:09:42.076Z,1.60
2018-03-31T19:12:09.279Z,1.60
2018-03-31T19:14:42.248Z,1.50
2018-03-31T19:17:15.095Z,1.50
2018-03-31T19:19:42.343Z,1.50
2018-03-31T19:22:09.509Z,1.50
2018-03-31T19:24:42.258Z,1.50
2018-03-31T19:27:10.179Z,1.50
2018-03-31T19:29:37.350Z,1.50
2018-03-31T19:32:04.620Z,1.50
2018-03-31T19:34:31.808Z,1.50
2018-03-31T19:37:00.010Z,1.50
2018-03-31T19:39:32.791Z,1.50
2018-03-31T19:42:00.823Z,1.50
2018-03-31T19:44:27.962Z,1.50
2018-03-31T19:46:55.925Z,1.50
2018-03-31T19:49:23.059Z,1.50
2018-03-31T19:51:50.192Z,1.50
2018-03-31T19:54:17.360Z,1.50
2018-03-31T19:56:44.495Z,1.50
2018-03-31T19:59:12.391Z,1.50
2018-03-31T20:01:39.572Z,1.50
2018-03-31T20:04:06.708Z,1.60
2018-03-31T20:06:33.837Z,1.60
2018-03-31T20:09:01.016Z,1.60
2018-03-31T20:11:29.847Z,1.60
2018-03-31T20:13:56.982Z,1.60
2018-03-31T20:16:24.912Z,1.60
2018-03-31T20:18:52.064Z,1.60
2018-03-31T20:21:19.187Z,1.60
2018-03-31T20:23:47.126Z,1.60
2018-03-31T20:26:14.277Z,1.60
2018-03-31T20:28:41.528Z,1.50
2018-03-31T20:31:08.763Z,1.60
2018-03-31T20:33:35.953Z,1.50
2018-03-31T20:36:03.467Z,1.50
2018-03-31T20:38:30.659Z,1.50
2018-03-31T20:40:57.809Z,1.60
2018-03-31T20:43:25.735Z,1.60
2018-03-31T20:45:52.908Z,1.60
2018-03-31T20:48:20.063Z,1.60
2018-03-31T20:50:47.194Z,1.60
2018-03-31T20:53:14.415Z,1.60
2018-03-31T20:55:41.547Z,1.60
2018-03-31T20:58:08.682Z,1.70
2018-03-31T21:00:35.875Z,1.70
2018-03-31T21:03:03.003Z,1.70
2018-03-31T21:05:30.985Z,1.70
2018-03-31T21:07:58.160Z,1.60
2018-03-31T21:10:25.291Z,1.70
2018-03-31T21:12:53.202Z,1.60
2018-03-31T21:15:20.380Z,1.60
2018-03-31T21:17:47.527Z,1.60
2018-03-31T21:20:14.659Z,1.60
2018-03-31T21:22:42.603Z,1.60
2018-03-31T21:25:09.735Z,1.60
2018-03-31T21:27:36.869Z,1.60
2018-03-31T21:30:04.053Z,1.60
2018-03-31T21:32:31.187Z,1.60
2018-03-31T21:34:58.319Z,1.60
2018-03-31T21:37:25.503Z,1.60
2018-03-31T21:39:53.408Z,1.70
2018-03-31T21:42:20.556Z,1.60
2018-03-31T21:44:47.724Z,1.70
2018-03-31T21:47:14.851Z,1.70
2018-03-31T21:49:42.761Z,1.70
2018-03-31T21:52:09.939Z,1.70
2018-03-31T21:54:37.066Z,1.70
2018-03-31T21:57:04.979Z,1.70
2018-03-31T21:59:32.226Z,1.70
2018-03-31T22:02:00.317Z,1.70
2018-03-31T22:04:27.451Z,1.70
2018-03-31T22:06:55.423Z,1.60
2018-03-31T22:09:22.555Z,1.60
2018-03-31T22:11:49.723Z,1.60
2018-03-31T22:14:22.433Z,1.60
2018-03-31T22:16:50.341Z,1.60
2018-03-31T22:19:17.533Z,1.60
2018-03-31T22:21:44.728Z,1.60
2018-03-31T22:24:11.874Z,1.60
2018-03-31T22:26:39.095Z,1.60
2018-03-31T22:29:06.292Z,1.60
2018-03-31T22:31:33.428Z,1.60
2018-03-31T22:34:00.613Z,1.60
2018-03-31T22:36:27.775Z,1.60
2018-03-31T22:38:55.027Z,1.60
2018-03-31T22:41:22.161Z,1.70
2018-03-31T22:43:49.349Z,1.70
2018-03-31T22:46:16.491Z,1.70
2018-03-31T22:48:43.610Z,1.70
2018-03-31T22:51:10.786Z,1.70
2018-03-31T22:53:37.963Z,1.70
2018-03-31T22:56:05.856Z,1.70
2018-03-31T22:58:33.034Z,1.70
2018-03-31T23:01:00.616Z,1.70
2018-03-31T23:03:27.755Z,1.70
2018-03-31T23:05:54.924Z,1.70
2018-03-31T23:08:22.056Z,1.70
2018-03-31T23:10:49.951Z,1.70
2018-03-31T23:13:17.125Z,1.70
2018-03-31T23:15:44.262Z,1.70
2018-03-31T23:18:12.151Z,1.70
2018-03-31T23:20:39.327Z,1.70
2018-03-31T23:23:06.463Z,1.70
2018-03-31T23:25:34.397Z,1.70
2018-03-31T23:28:01.627Z,1.70
2018-03-31T23:30:28.751Z,1.70
2018-03-31T23:32:55.947Z,1.70
2018-03-31T23:35:23.143Z,1.70
2018-03-31T23:37:50.267Z,1.70
2018-03-31T23:40:17.394Z,1.70
2018-03-31T23:42:44.575Z,1.70
2018-03-31T23:45:12.510Z,1.70
2018-03-31T23:47:39.667Z,1.70
2018-03-31T23:50:06.894Z,1.70
2018-03-31T23:52:34.024Z,1.60
2018-03-31T23:55:01.165Z,1.70
2018-03-31T23:57:29.864Z,1.60
2018-03-31T23:59:56.995Z,1.60
